createdAt,value
2018-11-06T00:04:00.685Z,23.3
2018-11-06T00:13:59.894Z,23.2
2018-11-06T00:23:59.107Z,22.3
2018-11-06T00:33:58.334Z,22.6
2018-11-06T00:43:57.529Z,22.9
2018-11-06T00:53:56.748Z,22.9
2018-11-06T01:03:55.964Z,22.4
2018-11-06T01:13:55.176Z,22.9
2018-11-06T01:23:54.389Z,22.8
2018-11-06T01:33:53.601Z,22.8
2018-11-06T01:43:52.816Z,22.8
2018-11-06T01:53:52.030Z,22.5
2018-11-06T02:03:51.237Z,23
2018-11-06T02:13:50.456Z,23.3
2018-11-06T02:23:49.670Z,23.1
2018-11-06T02:33:48.882Z,23
2018-11-06T02:43:48.097Z,22.3
2018-11-06T02:53:47.309Z,22.6
2018-11-06T03:03:46.517Z,22.9
2018-11-06T03:13:45.734Z,23.1
2018-11-06T03:23:44.952Z,23.1
2018-11-06T03:33:44.163Z,23
2018-11-06T03:43:43.375Z,22.4
2018-11-06T03:53:42.587Z,22.6
2018-11-06T04:03:41.804Z,23.3
2018-11-06T04:13:41.010Z,23.3
2018-11-06T04:23:40.228Z,22.9
2018-11-06T04:33:39.441Z,22.6
2018-11-06T04:43:38.657Z,22.9
2018-11-06T04:53:37.873Z,22.9
2018-11-06T05:03:37.083Z,22.7
2018-11-06T05:13:36.296Z,22.1
2018-11-06T05:23:35.506Z,22.4
2018-11-06T05:33:34.724Z,22.7
2018-11-06T05:43:33.944Z,22.9
2018-11-06T05:53:33.154Z,23.2
2018-11-06T06:03:32.371Z,23.3
2018-11-06T06:13:31.587Z,23.5
2018-11-06T06:23:30.800Z,23.7
2018-11-06T06:33:30.014Z,23.9
2018-11-06T06:43:29.223Z,23.9
2018-11-06T06:53:28.438Z,24.1
2018-11-06T07:03:27.647Z,24.3
2018-11-06T07:13:26.857Z,24.6
2018-11-06T07:23:26.070Z,24.9
2018-11-06T07:33:25.287Z,25.1
2018-11-06T07:43:24.497Z,25.4
2018-11-06T07:53:23.708Z,25.7
2018-11-06T08:03:22.925Z,25.9
2018-11-06T08:13:22.140Z,26.2
2018-11-06T08:23:21.356Z,26.4
2018-11-06T08:33:20.565Z,26.6
2018-11-06T08:43:19.789Z,26.9
2018-11-06T08:53:18.995Z,27
2018-11-06T09:03:18.208Z,27.1
2018-11-06T09:13:17.420Z,27.2
2018-11-06T09:23:16.632Z,27.2
2018-11-06T09:33:15.844Z,27.1
2018-11-06T09:43:15.059Z,27.1
2018-11-06T09:53:14.277Z,26.9
2018-11-06T10:03:13.488Z,26.9
2018-11-06T10:13:12.694Z,26.8
2018-11-06T10:23:11.903Z,26.8
2018-11-06T10:33:11.116Z,26.9
2018-11-06T10:43:10.335Z,26.6
2018-11-06T10:53:09.541Z,26.1
2018-11-06T11:03:08.759Z,25.7
2018-11-06T11:13:07.970Z,25.1
2018-11-06T11:23:07.184Z,24.8
2018-11-06T11:33:06.397Z,25.2
2018-11-06T11:43:05.612Z,25.6
2018-11-06T11:53:04.822Z,25.7
2018-11-06T12:03:04.027Z,25.3
2018-11-06T12:13:03.246Z,25.3
2018-11-06T12:23:02.456Z,25.2
2018-11-06T12:33:01.665Z,24.8
2018-11-06T12:43:00.962Z,24.6
2018-11-06T12:53:00.137Z,24.2
2018-11-06T13:02:59.304Z,24.5
2018-11-06T13:12:58.516Z,24.6
2018-11-06T13:22:57.721Z,23.9
2018-11-06T13:32:56.938Z,23.6
2018-11-06T13:42:56.396Z,23.6
2018-11-06T13:52:55.360Z,23.9
2018-11-06T14:02:54.577Z,23.7
2018-11-06T14:12:53.794Z,23.4
2018-11-06T14:22:53.008Z,23.1
2018-11-06T14:32:52.214Z,23.3
2018-11-06T14:42:51.493Z,23.3
2018-11-06T14:52:50.687Z,23.3
2018-11-06T15:02:49.850Z,23.4
2018-11-06T15:12:49.139Z,23.3
2018-11-06T15:22:48.276Z,22.6
2018-11-06T15:32:47.492Z,23.2
2018-11-06T15:42:46.698Z,23.4
2018-11-06T15:52:45.916Z,23.4
2018-11-06T16:02:45.124Z,23.3
2018-11-06T16:12:44.343Z,23
2018-11-06T16:22:43.554Z,22.8
2018-11-06T16:32:42.789Z,23.1
2018-11-06T16:42:41.991Z,23.4
2018-11-06T16:52:41.191Z,23.4
2018-11-06T17:02:40.404Z,23.3
2018-11-06T17:12:39.618Z,23.2
2018-11-06T17:22:38.841Z,22.9
2018-11-06T17:32:38.196Z,23.1
2018-11-06T17:42:37.276Z,23.2
2018-11-06T17:52:36.483Z,23.1
2018-11-06T18:02:35.699Z,23.1
2018-11-06T18:12:34.919Z,23.2
2018-11-06T18:22:34.122Z,23.1
2018-11-06T18:32:33.413Z,23.1
2018-11-06T18:42:32.556Z,23.2
2018-11-06T18:52:31.770Z,23.1
2018-11-06T19:02:30.981Z,23.1
2018-11-06T19:12:30.207Z,23.1
2018-11-06T19:22:29.411Z,23.1
2018-11-06T19:32:28.631Z,18.8
2018-11-06T19:42:27.865Z,17.9
2018-11-06T19:52:27.055Z,23.1
2018-11-06T20:02:26.273Z,24.6
2018-11-06T20:12:25.537Z,24.1
2018-11-06T20:22:24.699Z,23.4
2018-11-06T20:32:23.912Z,23.2
2018-11-06T20:42:23.132Z,23
2018-11-06T20:52:22.350Z,22.8
2018-11-06T21:02:21.561Z,22.9
2018-11-06T21:12:20.779Z,22.9
2018-11-06T21:22:19.988Z,23.1
2018-11-06T21:32:19.203Z,23.3
2018-11-06T21:42:18.419Z,22.9
2018-11-06T21:52:17.636Z,23.3
2018-11-06T22:02:16.844Z,23.3
2018-11-06T22:12:16.195Z,23.2
2018-11-06T22:22:15.308Z,23.1
2018-11-06T22:32:14.608Z,23.1
2018-11-06T22:42:13.693Z,23.1
2018-11-06T22:52:12.919Z,23.1
2018-11-06T23:02:12.120Z,23.1
2018-11-06T23:12:11.339Z,23
2018-11-06T23:22:10.596Z,22.9
2018-11-06T23:32:09.765Z,22.9
2018-11-06T23:42:08.979Z,22.8
2018-11-06T23:52:08.192Z,22.8
